Time;durP1;ratioP1;P1;durP2;ratioP2;P2;SDS_P1;SDS_P2;PMS_P1;PMS_P2;Temp;Humidity;BMP_temperature;BMP_pressure;BME280_temperature;BME280_humidity;BME280_pressure;Samples;Min_cycle;Max_cycle;Signal;HPM_P1;HPM_P2
2023/10/19 00:01:17;;;;;;;6.50;5.90;;;;;;;9.47;100.00;98886.69;6056303;23;20591;-76
2023/10/19 00:03:44;;;;;;;5.82;5.43;;;;;;;9.70;100.00;98900.59;6053679;23;20057;-78
2023/10/19 00:06:11;;;;;;;6.30;5.80;;;;;;;9.78;100.00;98927.91;6053442;23;20006;-76
2023/10/19 00:08:41;;;;;;;7.45;6.80;;;;;;;9.97;100.00;98950.88;6021422;23;20097;-76
2023/10/19 00:11:09;;;;;;;6.32;5.93;;;;;;;10.27;100.00;99003.66;6037553;23;20026;-77
2023/10/19 00:13:37;;;;;;;6.60;6.10;;;;;;;10.30;100.00;99003.44;6045931;23;20057;-76
2023/10/19 00:16:16;;;;;;;6.10;5.70;;;;;;;10.00;100.00;98962.88;6020376;23;20030;-77
2023/10/19 00:18:44;;;;;;;8.80;8.20;;;;;;;9.59;100.00;98881.31;6046065;23;20090;-78
2023/10/19 00:21:19;;;;;;;5.78;5.40;;;;;;;10.40;100.00;99001.75;6052799;23;20072;-77
2023/10/19 00:23:47;;;;;;;9.13;6.15;;;;;;;10.21;100.00;98972.69;6051480;23;20273;-77
2023/10/19 00:26:20;;;;;;;7.07;6.53;;;;;;;10.40;100.00;98995.69;6019639;23;20053;-78
2023/10/19 00:28:52;;;;;;;6.85;6.40;;;;;;;9.73;100.00;98882.03;6057945;23;20029;-77
2023/10/19 00:31:22;;;;;;;8.45;6.18;;;;;;;10.01;100.00;98919.19;6007357;23;20039;-77
2023/10/19 00:33:54;;;;;;;7.07;5.82;;;;;;;10.51;100.00;98995.69;6058560;23;20018;-77
2023/10/19 00:36:22;;;;;;;6.07;5.65;;;;;;;10.37;100.00;98968.75;6058217;23;20026;-76
2023/10/19 00:41:22;;;;;;;7.18;6.57;;;;;;;10.52;100.00;98987.69;6055418;23;20035;-78
2023/10/19 00:43:49;;;;;;;6.37;5.83;;;;;;;10.57;100.00;98987.31;6050797;23;20652;-78
2023/10/19 00:49:00;;;;;;;6.72;6.32;;;;;;;10.60;100.00;99000.19;6058620;23;20078;-78
2023/10/19 00:54:13;;;;;;;6.53;5.88;;;;;;;10.64;100.00;99004.22;6032411;23;20031;-77
2023/10/19 00:56:55;;;;;;;7.75;7.10;;;;;;;10.65;100.00;99000.66;6044240;23;20371;-78
2023/10/19 00:59:23;;;;;;;6.60;6.10;;;;;;;10.12;100.00;98909.53;6059207;23;20038;-78
2023/10/19 01:01:55;;;;;;;7.47;6.78;;;;;;;10.63;100.00;99004.38;6045952;23;20026;-78
2023/10/19 01:04:31;;;;;;;6.47;5.97;;;;;;;10.74;100.00;99014.81;6060147;23;20049;-78
2023/10/19 01:07:05;;;;;;;6.53;5.90;;;;;;;10.47;100.00;98955.75;6050001;23;20826;-77
2023/10/19 01:09:35;;;;;;;6.68;6.05;;;;;;;9.76;100.00;98847.72;6055857;23;20026;-78
2023/10/19 01:15:29;;;;;;;7.57;6.97;;;;;;;10.74;100.00;99007.81;6057179;23;20038;-78
2023/10/19 01:17:57;;;;;;;7.60;6.00;;;;;;;10.48;100.00;98986.25;5959401;23;20027;-78
2023/10/19 01:28:25;;;;;;;6.47;5.93;;;;;;;9.93;100.00;98909.31;6025547;23;20057;-75
2023/10/19 01:30:52;;;;;;;9.15;6.60;;;;;;;10.42;100.00;98989.34;6058011;23;20032;-75
2023/10/19 01:33:19;;;;;;;6.95;6.45;;;;;;;10.12;100.00;98958.47;6060371;23;20097;-74
2023/10/19 01:38:31;;;;;;;6.78;6.25;;;;;;;9.54;100.00;98835.47;6028453;23;20033;-74
2023/10/19 01:41:01;;;;;;;6.78;6.18;;;;;;;10.24;100.00;98949.66;6050001;23;20037;-75
2023/10/19 01:43:31;;;;;;;6.47;5.88;;;;;;;10.45;100.00;98967.31;6054893;23;20085;-77
2023/10/19 01:46:03;;;;;;;6.80;5.75;;;;;;;10.48;100.00;98973.13;6056350;23;20060;-78
2023/10/19 01:48:33;;;;;;;6.95;6.05;;;;;;;10.41;100.00;98948.38;6030381;23;20082;-78
2023/10/19 01:51:06;;;;;;;6.53;5.97;;;;;;;10.59;100.00;98972.28;6051228;23;20081;-77
2023/10/19 01:53:39;;;;;;;5.90;5.43;;;;;;;10.48;100.00;98936.41;6041777;23;20414;-79
2023/10/19 01:56:09;;;;;;;6.03;5.53;;;;;;;10.73;100.00;98974.63;6050495;23;20547;-77
2023/10/19 01:58:40;;;;;;;7.43;6.70;;;;;;;10.95;100.00;99004.41;6003404;23;20025;-78
2023/10/19 02:01:14;;;;;;;7.05;5.78;;;;;;;10.98;100.00;99006.75;6021427;23;20010;-79
2023/10/19 02:03:44;;;;;;;7.00;6.32;;;;;;;11.02;100.00;99008.19;6060482;23;20273;-78
2023/10/19 02:06:21;;;;;;;6.00;5.55;;;;;;;10.49;100.00;98929.41;6047886;23;20032;-78
2023/10/19 02:09:00;;;;;;;8.07;7.35;;;;;;;10.87;100.00;98991.91;6054052;23;20103;-81
2023/10/19 02:11:28;;;;;;;7.05;6.32;;;;;;;11.07;100.00;99028.84;6000789;23;20030;-77
2023/10/19 02:13:59;;;;;;;6.45;5.85;;;;;;;10.69;100.00;98941.75;6056159;23;20086;-76
2023/10/19 02:16:29;;;;;;;7.43;6.30;;;;;;;10.32;100.00;98879.16;5997867;23;20028;-77
2023/10/19 02:18:58;;;;;;;7.22;6.53;;;;;;;11.13;100.00;99004.69;6031538;23;20108;-77
2023/10/19 02:21:29;;;;;;;6.78;6.28;;;;;;;11.03;100.00;98988.03;6028792;23;20076;-76
2023/10/19 02:23:56;;;;;;;7.25;6.50;;;;;;;10.91;100.00;98966.25;6025229;23;20430;-77
2023/10/19 02:26:25;;;;;;;7.05;6.45;;;;;;;10.98;100.00;98975.25;6053574;23;20089;-78
2023/10/19 02:28:52;;;;;;;7.55;6.57;;;;;;;11.17;100.00;99014.00;6022772;23;20053;-77
2023/10/19 02:31:24;;;;;;;6.00;5.60;;;;;;;11.17;100.00;99016.63;6023797;23;20660;-76
2023/10/19 02:34:01;;;;;;;6.57;6.13;;;;;;;11.15;100.00;99006.25;6062414;23;20014;-77
2023/10/19 02:36:30;;;;;;;6.65;6.18;;;;;;;10.91;100.00;98963.63;6057014;23;20065;-76
2023/10/19 02:39:08;;;;;;;6.78;6.28;;;;;;;10.89;100.00;98965.53;6028677;23;20016;-77
2023/10/19 02:41:35;;;;;;;7.30;6.70;;;;;;;10.96;100.00;98979.81;6023280;23;20073;-78
2023/10/19 02:44:30;;;;;;;6.63;6.20;;;;;;;10.97;100.00;98977.06;6048994;23;20464;-77
2023/10/19 02:47:05;;;;;;;8.70;5.93;;;;;;;11.15;100.00;99000.16;6061358;23;20033;-78
2023/10/19 02:49:32;;;;;;;6.10;5.68;;;;;;;11.16;100.00;99010.53;6050067;23;20153;-78
2023/10/19 02:52:04;;;;;;;7.38;6.20;;;;;;;10.92;100.00;98966.09;6058629;23;20026;-76
2023/10/19 02:54:34;;;;;;;7.65;6.95;;;;;;;10.92;100.00;98966.09;6049685;23;20095;-77
2023/10/19 02:57:02;;;;;;;6.30;5.90;;;;;;;11.23;100.00;99005.63;6027074;23;20026;-75
2023/10/19 02:59:29;;;;;;;7.05;6.18;;;;;;;11.22;100.00;99001.31;6029537;23;20088;-77
2023/10/19 03:02:01;;;;;;;6.38;5.90;;;;;;;10.25;100.00;98850.88;6056817;23;20085;-78
2023/10/19 03:04:32;;;;;;;6.20;5.80;;;;;;;11.23;100.00;99005.63;6026479;23;20029;-75
2023/10/19 03:07:04;;;;;;;8.00;7.18;;;;;;;9.98;100.00;98791.84;6041147;23;20029;-79
2023/10/19 03:09:37;;;;;;;6.05;5.65;;;;;;;11.20;100.00;98990.09;6057311;23;20022;-76
2023/10/19 03:12:04;;;;;;;7.07;6.53;;;;;;;11.23;100.00;98989.84;6051594;23;20037;-76
2023/10/19 03:14:32;;;;;;;6.97;6.45;;;;;;;11.06;100.00;98975.47;6020009;23;20105;-77
2023/10/19 03:17:00;;;;;;;8.52;6.88;;;;;;;11.20;100.00;98994.53;6052099;23;20038;-77
2023/10/19 03:19:27;;;;;;;7.70;7.00;;;;;;;11.37;100.00;99007.09;6030239;23;20073;-77
2023/10/19 03:21:55;;;;;;;6.40;5.82;;;;;;;12.11;100.00;98950.97;6017379;23;20021;-77
2023/10/19 03:27:12;;;;;;;7.30;6.70;;;;;;;12.86;100.00;98933.81;6046866;23;20037;-75
2023/10/19 03:29:45;;;;;;;;;;;;;;;12.92;100.00;98896.41;6020009;23;20038;-77
2023/10/19 03:32:12;;;;;;;7.07;6.38;;;;;;;12.70;100.00;98842.22;6045213;23;19918;-76
2023/10/19 03:34:43;;;;;;;7.47;6.70;;;;;;;12.92;100.00;98820.03;6051285;23;20092;-77
2023/10/19 03:37:12;;;;;;;6.40;5.80;;;;;;;12.31;100.00;98765.13;6045370;23;20010;-78
2023/10/19 03:39:38;;;;;;;6.35;5.88;;;;;;;12.90;100.00;98819.34;6049022;23;20026;-77
2023/10/19 03:42:08;;;;;;;7.97;6.20;;;;;;;12.77;100.00;98750.41;6042364;23;20018;-77
2023/10/19 03:47:35;;;;;;;7.57;6.60;;;;;;;13.19;100.00;98792.13;6047520;23;20077;-76
2023/10/19 03:50:06;;;;;;;8.13;6.75;;;;;;;13.10;100.00;98749.03;6052790;23;20018;-77
2023/10/19 03:52:39;;;;;;;;;;;;;;;13.45;100.00;98773.91;6021921;23;20133;-78
2023/10/19 03:55:11;;;;;;;8.57;7.03;;;;;;;13.32;100.00;98704.91;6054217;23;20604;-77
2023/10/19 03:57:41;;;;;;;6.57;6.10;;;;;;;13.07;100.00;98622.94;6041314;23;20046;-77
2023/10/19 04:00:15;;;;;;;6.60;6.13;;;;;;;13.41;100.00;98632.88;6060993;23;20104;-78
2023/10/19 04:02:42;;;;;;;8.13;7.45;;;;;;;14.05;100.00;98707.47;6047614;23;21073;-77
2023/10/19 04:05:14;;;;;;;6.60;6.15;;;;;;;12.89;100.00;98522.00;6063237;23;20427;-76
2023/10/19 04:07:41;;;;;;;8.05;6.25;;;;;;;13.88;100.00;98651.09;6048819;23;20030;-80
2023/10/19 04:12:37;;;;;;;7.55;7.05;;;;;;;13.40;100.00;98583.78;6050322;23;20022;-78
2023/10/19 04:15:18;;;;;;;7.20;6.57;;;;;;;13.75;100.00;98640.97;6060737;23;20030;-78
2023/10/19 04:17:46;;;;;;;6.03;5.63;;;;;;;13.66;100.00;98630.47;6049935;23;20054;-77
2023/10/19 04:22:45;;;;;;;7.93;7.22;;;;;;;13.89;100.00;98625.56;6057211;23;20073;-79
2023/10/19 04:25:13;;;;;;;6.40;6.00;;;;;;;12.97;100.00;98480.81;6060539;23;20025;-79
2023/10/19 04:27:41;;;;;;;8.32;6.68;;;;;;;13.92;100.00;98636.63;6060077;23;20033;-76
2023/10/19 04:30:22;;;;;;;6.05;5.50;;;;;;;14.06;100.00;98656.38;6025235;23;20101;-79
2023/10/19 04:32:50;;;;;;;8.93;7.50;;;;;;;13.51;100.00;98522.13;6026423;23;20025;-79
2023/10/19 04:35:24;;;;;;;6.15;5.65;;;;;;;13.95;100.00;98590.66;6024161;23;20101;-78
2023/10/19 04:37:52;;;;;;;7.13;6.45;;;;;;;14.17;100.00;98615.72;6045894;23;20018;-78
2023/10/19 04:40:19;;;;;;;7.35;6.80;;;;;;;13.92;100.00;98620.00;6035741;23;20030;-78
2023/10/19 04:42:47;;;;;;;7.65;7.13;;;;;;;13.99;100.00;98636.84;6051839;23;20641;-77
2023/10/19 04:45:14;;;;;;;7.05;6.55;;;;;;;13.74;100.00;98602.38;6037232;23;20026;-78
2023/10/19 04:47:41;;;;;;;7.07;6.45;;;;;;;13.96;100.00;98614.25;6058517;23;20025;-79
2023/10/19 04:50:10;;;;;;;6.80;6.30;;;;;;;12.04;100.00;98298.66;6064773;23;20036;-77
2023/10/19 04:52:37;;;;;;;7.38;6.78;;;;;;;14.01;100.00;98605.06;6056258;23;20337;-79
2023/10/19 04:55:04;;;;;;;7.55;6.95;;;;;;;13.92;100.00;98562.00;6060247;23;20026;-77
2023/10/19 04:57:30;;;;;;;7.35;6.75;;;;;;;13.96;100.00;98602.88;6053572;23;20023;-78
2023/10/19 04:59:57;;;;;;;6.53;6.03;;;;;;;14.22;100.00;98616.09;6063313;23;20026;-77
2023/10/19 05:02:23;;;;;;;6.68;6.18;;;;;;;13.88;100.00;98545.63;6053080;23;20042;-78
2023/10/19 05:04:51;;;;;;;6.28;5.88;;;;;;;14.11;100.00;98598.72;6065782;23;20234;-76
2023/10/19 05:07:17;;;;;;;6.25;5.85;;;;;;;14.21;100.00;98609.16;6041798;23;20033;-78
2023/10/19 05:09:45;;;;;;;6.82;6.32;;;;;;;13.91;100.00;98560.31;6058388;23;20073;-77
2023/10/19 05:12:14;;;;;;;6.50;5.90;;;;;;;14.15;100.00;98602.72;6047737;23;20064;-77
2023/10/19 05:14:42;;;;;;;7.40;6.90;;;;;;;14.24;100.00;98603.56;6050736;23;20034;-75
2023/10/19 05:17:09;;;;;;;9.57;6.03;;;;;;;14.14;100.00;98614.22;6027071;23;20082;-77
2023/10/19 05:19:37;;;;;;;11.73;5.70;;;;;;;14.25;100.00;98615.81;6057236;23;20392;-78
2023/10/19 05:22:06;;;;;;;6.32;5.88;;;;;;;14.22;100.00;98597.63;6053168;23;20030;-76
2023/10/19 05:24:33;;;;;;;7.25;6.55;;;;;;;14.01;100.00;98554.94;6025109;23;20046;-76
2023/10/19 05:26:59;;;;;;;6.78;6.22;;;;;;;14.34;100.00;98577.91;6051052;23;20022;-76
2023/10/19 05:29:26;;;;;;;6.25;5.85;;;;;;;14.27;100.00;98562.84;6057478;23;20026;-79
2023/10/19 05:31:53;;;;;;;5.85;5.45;;;;;;;13.79;100.00;98493.00;6046897;23;20032;-76
2023/10/19 05:34:21;;;;;;;6.45;5.90;;;;;;;14.04;100.00;98533.56;6031439;23;20388;-76
2023/10/19 05:36:48;;;;;;;7.75;7.15;;;;;;;13.40;100.00;98409.09;6045688;23;20132;-77
2023/10/19 05:39:16;;;;;;;6.05;5.60;;;;;;;14.43;100.00;98575.31;6054730;23;20072;-78
2023/10/19 05:41:43;;;;;;;6.43;5.88;;;;;;;14.43;100.00;98576.13;6054970;23;20029;-78
2023/10/19 05:44:10;;;;;;;7.40;6.80;;;;;;;14.48;100.00;98567.78;6054956;23;20021;-78
2023/10/19 05:46:37;;;;;;;7.72;7.13;;;;;;;14.40;100.00;98567.72;6051495;23;20485;-77
2023/10/19 05:49:06;;;;;;;6.65;6.15;;;;;;;14.44;100.00;98571.72;6054680;23;20049;-77
2023/10/19 05:51:32;;;;;;;5.55;5.25;;;;;;;14.45;100.00;98579.47;6043154;23;20026;-78
2023/10/19 05:54:03;;;;;;;9.30;7.22;;;;;;;14.50;100.00;98579.00;6064339;23;20718;-77
2023/10/19 05:56:30;;;;;;;7.53;6.82;;;;;;;14.45;100.00;98553.09;6037166;23;20592;-78
2023/10/19 05:58:57;;;;;;;6.47;6.00;;;;;;;14.54;100.00;98578.50;6058337;23;20023;-77
2023/10/19 06:01:24;;;;;;;6.00;5.68;;;;;;;14.52;100.00;98569.94;6044569;23;20030;-78
2023/10/19 06:03:51;;;;;;;6.00;5.63;;;;;;;14.59;100.00;98575.41;6029071;23;20039;-76
2023/10/19 06:06:20;;;;;;;6.22;5.63;;;;;;;13.97;100.00;98475.31;6047233;23;20100;-78
2023/10/19 06:08:46;;;;;;;8.00;7.40;;;;;;;14.51;100.00;98578.00;6029908;23;20025;-80
2023/10/19 06:11:13;;;;;;;6.85;6.28;;;;;;;14.07;100.00;98510.34;6029953;23;20079;-80
2023/10/19 06:13:39;;;;;;;5.65;5.30;;;;;;;14.25;100.00;98531.38;6049203;23;20030;-80
2023/10/19 06:16:06;;;;;;;6.88;6.38;;;;;;;14.73;100.00;98595.13;6049056;23;20515;-76
2023/10/19 06:18:33;;;;;;;6.97;6.43;;;;;;;14.32;100.00;98510.47;6053270;23;20022;-77
2023/10/19 06:20:59;;;;;;;5.68;5.28;;;;;;;14.91;100.00;98580.03;6046999;23;20018;-73
2023/10/19 06:23:26;;;;;;;6.40;5.90;;;;;;;14.68;100.00;98537.53;6060843;23;20018;-74
2023/10/19 06:25:52;;;;;;;6.00;5.60;;;;;;;14.84;100.00;98549.97;6050305;23;20473;-75
2023/10/19 06:28:19;;;;;;;8.95;5.63;;;;;;;14.91;100.00;98555.41;6015915;23;20356;-75
2023/10/19 06:30:48;;;;;;;7.75;7.15;;;;;;;14.33;100.00;98465.44;6045392;23;20464;-75
2023/10/19 06:33:14;;;;;;;5.78;5.38;;;;;;;14.85;100.00;98550.78;6028287;23;20095;-77
2023/10/19 06:35:41;;;;;;;6.28;5.78;;;;;;;15.08;100.00;98575.63;6047246;23;20318;-74
2023/10/19 06:38:09;;;;;;;7.25;6.65;;;;;;;14.87;100.00;98549.63;6030540;23;20038;-76
2023/10/19 06:40:38;;;;;;;7.03;6.53;;;;;;;14.05;100.00;98501.75;6052656;23;20550;-76
2023/10/19 06:43:05;;;;;;;6.85;6.25;;;;;;;14.67;100.00;98615.09;6049203;23;20733;-77
2023/10/19 06:45:32;;;;;;;5.68;5.30;;;;;;;14.66;100.00;98613.41;6034475;23;20022;-75
2023/10/19 06:48:03;;;;;;;6.65;6.00;;;;;;;14.17;100.00;98557.69;6063633;23;20528;-76
2023/10/19 06:50:31;;;;;;;6.22;5.63;;;;;;;14.66;100.00;98613.41;6044679;23;20097;-77
2023/10/19 06:52:58;;;;;;;6.00;5.57;;;;;;;14.35;100.00;98523.31;6054542;23;20024;-77
2023/10/19 06:55:25;;;;;;;8.57;5.38;;;;;;;14.90;100.00;98602.13;6046867;23;20601;-74
2023/10/19 06:57:53;;;;;;;6.43;5.97;;;;;;;14.94;100.00;98600.81;6030169;23;20087;-74
2023/10/19 07:00:23;;;;;;;6.47;6.00;;;;;;;14.93;100.00;98604.47;6046900;23;20109;-74
2023/10/19 07:02:50;;;;;;;7.22;6.63;;;;;;;14.71;100.00;98597.09;6018917;23;20058;-75
2023/10/19 07:05:20;;;;;;;6.07;5.68;;;;;;;14.86;100.00;98626.38;6054738;23;20089;-75
2023/10/19 07:07:49;;;;;;;6.72;6.13;;;;;;;14.44;100.00;98624.50;6051979;23;20098;-75
2023/10/19 07:10:19;;;;;;;6.32;5.82;;;;;;;14.69;100.00;98670.34;6057069;23;20018;-75
2023/10/19 07:12:49;;;;;;;7.47;7.03;;;;;;;14.94;100.00;98664.22;6053708;23;20038;-75
2023/10/19 07:15:18;;;;;;;6.07;5.65;;;;;;;14.66;100.00;98639.81;6025888;23;20102;-76
2023/10/19 07:17:52;;;;;;;5.88;5.55;;;;;;;14.79;100.00;98642.03;6055040;23;20045;-77
2023/10/19 07:20:38;;;;;;;6.50;6.10;;;;;;;14.59;100.00;98635.31;6051493;23;20043;-74
2023/10/19 07:23:26;;;;;;;6.55;5.90;;;;;;;14.49;100.00;98593.16;6053592;23;20074;-77
2023/10/19 07:25:59;;;;;;;5.90;5.40;;;;;;;14.53;100.00;98566.31;6050358;23;20021;-74
2023/10/19 07:28:26;;;;;;;6.35;5.85;;;;;;;14.68;100.00;98585.03;6036376;23;20033;-74
2023/10/19 07:30:53;;;;;;;6.05;5.68;;;;;;;15.17;100.00;98645.16;6040997;23;20010;-75
2023/10/19 07:33:20;;;;;;;6.15;5.75;;;;;;;15.09;100.00;98651.22;6054635;23;20030;-74
2023/10/19 07:35:48;;;;;;;6.30;5.90;;;;;;;15.20;100.00;98662.53;6049368;23;20060;-74
2023/10/19 07:38:15;;;;;;;7.43;6.93;;;;;;;14.65;100.00;98588.00;6021926;23;20204;-74
2023/10/19 07:40:43;;;;;;;7.38;6.65;;;;;;;14.73;100.00;98659.34;6050539;23;20499;-74
2023/10/19 07:43:10;;;;;;;6.72;6.22;;;;;;;14.83;100.00;98597.66;6050362;23;20029;-74
2023/10/19 07:45:36;;;;;;;6.55;5.93;;;;;;;14.59;100.00;98572.78;6047513;23;20018;-73
2023/10/19 07:48:10;;;;;;;7.30;5.40;;;;;;;15.13;100.00;98694.88;6050600;23;20081;-74
2023/10/19 07:50:40;;;;;;;7.22;6.72;;;;;;;14.86;100.00;98634.31;6047192;23;20239;-74
2023/10/19 07:53:08;;;;;;;6.25;5.68;;;;;;;14.85;100.00;98600.94;6056821;23;20033;-74
2023/10/19 07:55:35;;;;;;;5.97;5.53;;;;;;;15.36;100.00;98695.09;6048872;23;20030;-74
2023/10/19 07:58:03;;;;;;;7.05;6.35;;;;;;;15.12;100.00;98665.97;6053307;23;20048;-75
2023/10/19 08:00:30;;;;;;;6.85;6.30;;;;;;;15.39;100.00;98686.03;6014854;23;20100;-75
2023/10/19 08:02:58;;;;;;;7.85;7.20;;;;;;;15.11;100.00;98609.66;6050813;23;20111;-74
2023/10/19 08:05:25;;;;;;;7.30;6.68;;;;;;;14.81;100.00;98562.66;6050957;23;20086;-74
2023/10/19 08:07:52;;;;;;;6.32;5.82;;;;;;;15.42;100.00;98651.34;6049820;23;20519;-75
2023/10/19 08:10:19;;;;;;;8.40;7.22;;;;;;;13.66;100.00;98412.53;6049699;23;20528;-75
2023/10/19 08:12:48;;;;;;;8.93;8.13;;;;;;;15.56;100.00;98694.84;6047423;23;20053;-75
2023/10/19 08:15:16;;;;;;;9.50;6.32;;;;;;;15.41;100.00;98623.25;6050356;23;20030;-75
2023/10/19 08:17:44;;;;;;;6.75;6.25;;;;;;;15.69;100.00;98649.41;6026889;23;20054;-75
2023/10/19 08:20:16;;;;;;;6.50;6.05;;;;;;;14.65;100.00;98516.72;6022800;23;20114;-76
2023/10/19 08:22:46;;;;;;;7.50;7.00;;;;;;;15.73;100.00;98679.84;6040886;23;20263;-75
2023/10/19 08:25:14;;;;;;;8.48;6.18;;;;;;;15.79;100.00;98663.34;6026387;23;20081;-75
2023/10/19 08:27:44;;;;;;;6.22;5.80;;;;;;;15.81;100.00;98644.66;6046472;23;20022;-75
2023/10/19 08:30:12;;;;;;;5.95;5.55;;;;;;;15.26;100.00;98548.25;6055459;23;20090;-75
2023/10/19 08:32:42;;;;;;;8.25;7.45;;;;;;;15.95;100.00;98636.06;6050455;23;20049;-75
2023/10/19 08:35:12;;;;;;;7.10;6.60;;;;;;;16.05;100.00;98660.53;6054090;23;20034;-74
2023/10/19 08:37:42;;;;;;;6.97;6.47;;;;;;;16.25;100.00;98662.84;6017568;23;20045;-75
2023/10/19 08:40:14;;;;;;;7.43;6.82;;;;;;;16.14;100.00;98597.88;6042031;23;20046;-73
2023/10/19 08:42:41;;;;;;;;;;;;;;;16.87;100.00;98638.44;6014787;23;20059;-73
2023/10/19 08:45:09;;;;;;;7.40;6.82;;;;;;;16.83;100.00;98595.56;6049032;23;19995;-73
2023/10/19 08:47:36;;;;;;;6.60;6.20;;;;;;;15.69;100.00;98406.13;6058955;23;20070;-75
2023/10/19 08:50:05;;;;;;;6.90;6.30;;;;;;;16.68;100.00;98563.66;6045870;23;20034;-75
2023/10/19 08:52:32;;;;;;;6.90;6.30;;;;;;;16.53;100.00;98539.69;6054832;23;20525;-72
2023/10/19 08:55:02;;;;;;;6.80;6.30;;;;;;;17.27;100.00;98618.03;6047689;23;20520;-74
2023/10/19 08:57:29;;;;;;;7.03;6.43;;;;;;;17.36;100.00;98587.84;6056885;23;20113;-77
2023/10/19 08:59:58;;;;;;;6.60;6.10;;;;;;;17.58;100.00;98574.75;6053151;23;20034;-76
2023/10/19 09:02:25;;;;;;;6.20;5.80;;;;;;;17.44;100.00;98488.84;6061968;23;20029;-76
2023/10/19 09:04:51;;;;;;;6.78;6.28;;;;;;;17.97;100.00;98508.28;6038951;23;20018;-78
2023/10/19 09:07:18;;;;;;;6.88;6.25;;;;;;;17.45;100.00;98395.84;6019821;23;20027;-75
2023/10/19 09:09:47;;;;;;;6.18;5.68;;;;;;;16.38;100.00;98213.16;6056953;23;20030;-74
2023/10/19 09:12:13;;;;;;;20.45;5.78;;;;;;;18.03;100.00;98466.94;6047644;23;20018;-72
2023/10/19 09:14:43;;;;;;;7.25;6.70;;;;;;;18.32;100.00;98466.91;6044111;23;20382;-78
2023/10/19 09:17:10;;;;;;;6.88;6.38;;;;;;;18.05;100.00;98401.22;6046064;23;20060;-77
2023/10/19 09:19:47;;;;;;;6.97;6.47;;;;;;;18.01;100.00;98406.06;6020491;23;20065;-76
2023/10/19 09:22:18;;;;;;;6.00;5.70;;;;;;;17.45;100.00;98334.06;6047482;23;20030;-77
2023/10/19 09:24:45;;;;;;;7.32;6.93;;;;;;;18.33;100.00;98451.81;6022323;23;20863;-76
2023/10/19 09:27:13;;;;;;;6.25;5.85;;;;;;;17.88;100.00;98416.50;6046899;23;20389;-76
2023/10/19 09:29:40;;;;;;;5.82;5.43;;;;;;;18.00;100.00;98424.81;6026760;23;20038;-76
2023/10/19 09:32:07;;;;;;;6.40;5.90;;;;;;;17.01;100.00;98293.22;6050210;23;20517;-75
2023/10/19 09:34:35;;;;;;;17.40;5.75;;;;;;;17.50;100.00;98388.19;6064069;23;20091;-77
2023/10/19 09:37:03;;;;;;;5.70;5.30;;;;;;;16.84;100.00;98323.53;6031802;23;20022;-76
2023/10/19 09:39:36;;;;;;;5.82;5.43;;;;;;;18.00;100.00;98467.28;6059574;23;20046;-75
2023/10/19 09:42:06;;;;;;;5.60;5.30;;;;;;;18.21;100.00;98503.72;6065610;23;20559;-74
2023/10/19 09:44:40;;;;;;;7.53;5.88;;;;;;;18.36;100.00;98483.28;6053982;23;20042;-73
2023/10/19 09:47:12;;;;;;;5.57;5.28;;;;;;;18.45;100.00;98482.19;6029599;23;20041;-73
2023/10/19 09:49:41;;;;;;;5.97;5.47;;;;;;;18.72;100.00;98448.81;6035901;23;20282;-75
2023/10/19 09:52:09;;;;;;;7.53;5.60;;;;;;;18.67;96.90;98378.63;6024112;23;20010;-75
2023/10/19 09:54:54;;;;;;;6.68;6.28;;;;;;;19.02;94.58;98366.31;6051274;23;20529;-73
2023/10/19 09:57:42;;;;;;;5.72;5.32;;;;;;;18.71;94.23;98303.66;6057141;23;20054;-73
2023/10/19 10:00:12;;;;;;;5.60;5.10;;;;;;;18.36;93.53;98275.34;6048806;23;20096;-73
2023/10/19 10:02:42;;;;;;;7.40;6.95;;;;;;;18.93;92.93;98338.22;6050712;23;20037;-76
2023/10/19 10:05:43;;;;;;;7.10;5.50;;;;;;;18.78;92.78;98342.75;6064147;23;20660;-74
2023/10/19 10:08:18;;;;;;;5.80;5.32;;;;;;;18.72;94.43;98368.25;6019204;23;20062;-72
2023/10/19 10:10:49;;;;;;;6.85;6.35;;;;;;;18.57;94.83;98380.78;6052602;23;20007;-74
2023/10/19 10:13:30;;;;;;;5.45;5.15;;;;;;;18.55;94.77;98380.97;6050466;23;20018;-73
2023/10/19 10:16:00;;;;;;;5.82;5.25;;;;;;;18.32;94.17;98328.84;6051218;23;20685;-74
2023/10/19 10:18:30;;;;;;;6.10;5.50;;;;;;;18.04;94.47;98278.31;6055047;23;20031;-74
2023/10/19 10:21:17;;;;;;;6.30;5.65;;;;;;;18.89;93.92;98400.75;6044553;23;20010;-73
2023/10/19 10:23:47;;;;;;;5.70;5.30;;;;;;;19.11;94.19;98422.84;6054838;23;20030;-73
2023/10/19 10:26:15;;;;;;;6.40;5.90;;;;;;;18.06;93.00;98228.53;6017928;23;20501;-74
2023/10/19 10:28:46;;;;;;;6.82;6.32;;;;;;;18.53;90.49;98251.00;6054101;23;20090;-73
2023/10/19 10:31:22;;;;;;;8.13;5.30;;;;;;;19.22;88.33;98299.16;6048844;23;20054;-76
2023/10/19 10:33:57;;;;;;;5.80;5.50;;;;;;;19.08;87.40;98264.53;6027151;23;20474;-76
2023/10/19 10:36:26;;;;;;;5.70;5.30;;;;;;;18.11;87.79;98156.28;6054805;23;20029;-74
2023/10/19 10:39:05;;;;;;;5.65;5.32;;;;;;;18.27;89.74;98209.09;6042103;23;20027;-76
2023/10/19 10:41:31;;;;;;;6.10;5.70;;;;;;;18.86;88.50;98281.53;6054158;23;20022;-76
2023/10/19 10:43:58;;;;;;;5.60;5.30;;;;;;;18.54;88.49;98246.50;6052110;23;21132;-73
2023/10/19 10:46:29;;;;;;;6.18;5.55;;;;;;;18.81;89.11;98291.94;6053027;23;20109;-74
2023/10/19 10:48:56;;;;;;;5.55;5.15;;;;;;;18.64;88.19;98256.81;6052364;23;20027;-74
2023/10/19 10:51:28;;;;;;;5.10;4.90;;;;;;;18.82;88.68;98318.31;6058220;23;20022;-74
2023/10/19 10:53:58;;;;;;;5.50;5.18;;;;;;;19.28;85.79;98280.63;6025899;23;20023;-74
2023/10/19 10:56:24;;;;;;;7.30;5.43;;;;;;;19.12;85.57;98255.16;6055903;23;20013;-74
2023/10/19 10:58:51;;;;;;;5.88;5.45;;;;;;;18.72;86.69;98219.47;6056715;23;20308;-74
2023/10/19 11:01:34;;;;;;;5.40;5.10;;;;;;;18.93;89.01;98344.38;6048612;23;20549;-74
2023/10/19 11:04:12;;;;;;;5.68;5.38;;;;;;;18.92;89.27;98312.66;6051596;23;20046;-74
2023/10/19 11:06:55;;;;;;;7.43;6.72;;;;;;;19.31;86.19;98290.03;6048157;23;20034;-74
2023/10/19 11:09:22;;;;;;;6.43;5.93;;;;;;;18.45;86.87;98195.38;6035774;23;20044;-74
2023/10/19 11:11:54;;;;;;;5.80;5.40;;;;;;;18.22;89.11;98243.38;6049841;23;20463;-75
2023/10/19 11:14:23;;;;;;;;;;;;;;;17.60;90.85;98196.13;6046949;23;20031;-75
2023/10/19 11:16:50;;;;;;;6.63;6.03;;;;;;;17.83;93.77;98302.97;6052509;23;20148;-75
2023/10/19 11:19:17;;;;;;;5.60;5.30;;;;;;;18.38;93.05;98366.25;6043544;23;20018;-74
2023/10/19 11:21:54;;;;;;;5.38;5.10;;;;;;;18.11;92.45;98295.13;6033637;23;20088;-74
2023/10/19 11:24:26;;;;;;;5.72;5.15;;;;;;;18.76;90.00;98310.25;6053640;23;20656;-74
2023/10/19 11:26:52;;;;;;;5.38;5.15;;;;;;;17.48;90.07;98129.50;6047122;23;20110;-74
2023/10/19 11:29:19;;;;;;;10.15;5.90;;;;;;;18.60;90.01;98290.91;6019680;23;20046;-74
2023/10/19 11:31:57;;;;;;;5.72;5.32;;;;;;;18.55;90.39;98309.25;6060695;23;20037;-73
2023/10/19 11:34:24;;;;;;;6.93;5.40;;;;;;;18.58;90.92;98310.69;6027590;23;20090;-74
2023/10/19 11:36:56;;;;;;;6.03;5.72;;;;;;;18.43;91.40;98308.94;6029193;23;20103;-74
2023/10/19 11:39:23;;;;;;;5.38;5.07;;;;;;;18.25;93.73;98314.66;6019249;23;20085;-74
2023/10/19 11:41:49;;;;;;;6.13;5.53;;;;;;;18.25;93.28;98312.00;6058965;23;20392;-74
2023/10/19 11:44:16;;;;;;;5.93;5.63;;;;;;;18.48;93.96;98359.66;6046129;23;20037;-73
2023/10/19 11:46:43;;;;;;;6.65;6.25;;;;;;;18.57;94.71;98378.94;6002549;23;20031;-73
2023/10/19 11:49:10;;;;;;;10.20;9.48;;;;;;;18.32;94.87;98360.72;6029926;23;20034;-73
2023/10/19 11:51:37;;;;;;;6.35;5.30;;;;;;;18.15;96.63;98364.59;5947952;23;20014;-74
2023/10/19 11:54:06;;;;;;;5.38;5.18;;;;;;;18.19;95.36;98330.53;6045607;23;20402;-71
2023/10/19 11:56:32;;;;;;;5.38;5.10;;;;;;;18.10;95.95;98316.53;6055154;23;20049;-73
2023/10/19 11:58:59;;;;;;;5.30;5.00;;;;;;;18.14;96.59;98345.19;6047133;23;20027;-76
2023/10/19 12:01:26;;;;;;;5.68;5.38;;;;;;;17.83;98.39;98328.66;6051753;23;20080;-76
2023/10/19 12:03:53;;;;;;;5.72;4.97;;;;;;;18.59;99.84;98480.53;6057883;23;20286;-74
2023/10/19 12:06:19;;;;;;;5.78;5.47;;;;;;;18.40;98.49;98396.13;6028150;23;20079;-73
2023/10/19 12:08:47;;;;;;;7.15;6.70;;;;;;;18.46;98.08;98398.00;6054732;23;20022;-73
2023/10/19 12:11:16;;;;;;;5.43;5.13;;;;;;;18.10;99.20;98361.66;6060504;23;20024;-76